Gatlinburg, TN

2:43 PM EDT on September 01, 2014 (GMT -0400)
UT Field Station | Change Station
CLOSE
Current Station
Personal Weather Station
Location: Gatlinburg, TN
Elevation: 1586 ft
Nearby Weather Stations

Elev 1586 ft 35.74 °N, 83.42 °W | Updated 1 minute ago

Partly Cloudy
Partly Cloudy
87.6 °F
Feels Like 92 °F
N
0.0
Wind Variable Wind from North
Gusts 4.0 mph

Today
High -- | Low -- °F
--% Chance of Precip.
Yesterday
High -- | Low -- °F
Precip. -- in
7:06 AM 8:01 PM
Waxing Crescent, 43% visible
Pressure 30.07 in
Visibility 8.0 miles
Clouds Few 4000 ft
Scattered Clouds 18000 ft
Scattered Clouds 25000 ft
Heat Index 92 °F
Dew Point 69 °F
Humidity 55%
Rainfall 0.00 in
Snow Depth Not available.
UV 8 out of 12
Pollen 10.20 out of 12
Air Quality Not available.
Flu Activity Not available.
METAR KTYS 011753Z 23007KT 8SM FEW040 SCT180 SCT250 31/22 A3010 RMK AO2 SLP181 T03060217 10311 20217 58009

More Conditions Fewer Conditions

Pressure 30.07 in
Visibility 8.0 miles
Clouds Few 4000 ft
Scattered Clouds 18000 ft
Scattered Clouds 25000 ft
Heat Index 92 °F
Dew Point 69 °F
Humidity 55%
Rainfall 0.00 in
Snow Depth Not available.
UV 8 out of 12
Pollen 10.20 out of 12
Air Quality Not available.
Flu Activity Not available.
METAR KTYS 011753Z 23007KT 8SM FEW040 SCT180 SCT250 31/22 A3010 RMK AO2 SLP181 T03060217 10311 20217 58009

More Conditions Fewer Conditions

10-Day Weather Forecast

Almanac

Astronomy

Sep. 01, 2014 Rise Set
Actual Time 7:06 AM EDT 8:01 PM EDT
Civil Twilight 6:39 AM EDT 8:27 PM EDT
Nautical Twilight 6:09 AM EDT 8:58 PM EDT
Astronomical Twilight 5:37 AM EDT 9:30 PM EDT
Moon 1:37 PM EDT No Moon Set
Length of Visible Light 13h 47m
Length of Day
12h 55m
Tomorrow will be 2m 10s shorter.
Waxing Crescent, 43% of the Moon is Illuminated
Today
Waxing Crescent
Sep 2
First Quarter
Sep 8
Full
Sep 15
Last Quarter
Sep 24
New

Today's Extremes

State Highs State Lows

Community

WunderPhotos

Upload Photos

1,749,359 photos uploaded!

Nearby

Snow Depth

Station Depth Elevation
No new snow has been reported.

Earthquake Activity

City Distance Mag. Time & Date
No recent earthquake activity has been reported nearby.
Minimum magnitude displayed is 2.5.

Coastal Water Temperatures

Place Temperature
No Stations Reporting

Nearby Weather Stations